sensor_id;sensor_type;location;lat;lon;timestamp;P1;durP1;ratioP1;P2;durP2;ratioP2
15293;SDS011;74171;52.534;13.436;2024-02-21T00:00:55;15.80;;;6.67;;
15293;SDS011;74171;52.534;13.436;2024-02-21T00:02:58;22.13;;;6.10;;
15293;SDS011;74171;52.534;13.436;2024-02-21T00:05:03;18.23;;;6.97;;
15293;SDS011;74171;52.534;13.436;2024-02-21T00:07:09;19.93;;;6.20;;
15293;SDS011;74171;52.534;13.436;2024-02-21T00:09:11;22.30;;;6.90;;
15293;SDS011;74171;52.534;13.436;2024-02-21T00:11:14;18.23;;;7.20;;
15293;SDS011;74171;52.534;13.436;2024-02-21T00:13:18;19.90;;;6.97;;
15293;SDS011;74171;52.534;13.436;2024-02-21T00:15:21;20.40;;;7.27;;
15293;SDS011;74171;52.534;13.436;2024-02-21T00:17:24;15.23;;;7.00;;
15293;SDS011;74171;52.534;13.436;2024-02-21T00:19:28;19.83;;;7.17;;
15293;SDS011;74171;52.534;13.436;2024-02-21T00:21:34;20.67;;;6.03;;
15293;SDS011;74171;52.534;13.436;2024-02-21T00:23:36;26.90;;;7.73;;
15293;SDS011;74171;52.534;13.436;2024-02-21T00:25:40;19.00;;;6.13;;
15293;SDS011;74171;52.534;13.436;2024-02-21T00:27:42;21.07;;;6.10;;
15293;SDS011;74171;52.534;13.436;2024-02-21T00:29:47;20.13;;;6.27;;
15293;SDS011;74171;52.534;13.436;2024-02-21T00:31:49;18.20;;;5.50;;
15293;SDS011;74171;52.534;13.436;2024-02-21T00:33:53;17.10;;;5.60;;
15293;SDS011;74171;52.534;13.436;2024-02-21T00:35:55;12.03;;;5.30;;
15293;SDS011;74171;52.534;13.436;2024-02-21T00:37:59;22.13;;;6.27;;
15293;SDS011;74171;52.534;13.436;2024-02-21T00:40:01;20.77;;;5.90;;
15293;SDS011;74171;52.534;13.436;2024-02-21T00:42:05;17.90;;;6.43;;
15293;SDS011;74171;52.534;13.436;2024-02-21T00:44:08;23.77;;;5.83;;
15293;SDS011;74171;52.534;13.436;2024-02-21T00:46:13;22.00;;;6.23;;
15293;SDS011;74171;52.534;13.436;2024-02-21T00:48:15;18.77;;;6.37;;
15293;SDS011;74171;52.534;13.436;2024-02-21T00:50:19;19.60;;;6.30;;
15293;SDS011;74171;52.534;13.436;2024-02-21T00:52:22;22.13;;;6.63;;
15293;SDS011;74171;52.534;13.436;2024-02-21T00:54:24;16.17;;;6.10;;
15293;SDS011;74171;52.534;13.436;2024-02-21T00:56:32;14.10;;;5.20;;
15293;SDS011;74171;52.534;13.436;2024-02-21T00:58:35;13.60;;;5.90;;
15293;SDS011;74171;52.534;13.436;2024-02-21T01:00:38;17.87;;;5.90;;
15293;SDS011;74171;52.534;13.436;2024-02-21T01:02:57;17.60;;;5.20;;
15293;SDS011;74171;52.534;13.436;2024-02-21T01:05:00;12.40;;;5.73;;
15293;SDS011;74171;52.534;13.436;2024-02-21T01:07:08;18.53;;;6.40;;
15293;SDS011;74171;52.534;13.436;2024-02-21T01:09:11;17.73;;;6.00;;
15293;SDS011;74171;52.534;13.436;2024-02-21T01:11:14;21.37;;;6.50;;
15293;SDS011;74171;52.534;13.436;2024-02-21T01:13:17;15.47;;;6.03;;
15293;SDS011;74171;52.534;13.436;2024-02-21T01:15:21;14.83;;;5.23;;
15293;SDS011;74171;52.534;13.436;2024-02-21T01:17:24;17.27;;;6.23;;
15293;SDS011;74171;52.534;13.436;2024-02-21T01:19:28;18.77;;;6.77;;
15293;SDS011;74171;52.534;13.436;2024-02-21T01:21:32;14.90;;;4.97;;
15293;SDS011;74171;52.534;13.436;2024-02-21T01:23:35;19.37;;;6.80;;
15293;SDS011;74171;52.534;13.436;2024-02-21T01:25:38;20.43;;;6.40;;
15293;SDS011;74171;52.534;13.436;2024-02-21T01:27:42;13.77;;;5.50;;
15293;SDS011;74171;52.534;13.436;2024-02-21T01:29:45;23.00;;;5.73;;
15293;SDS011;74171;52.534;13.436;2024-02-21T01:31:50;19.80;;;6.60;;
15293;SDS011;74171;52.534;13.436;2024-02-21T01:33:53;18.03;;;6.17;;
15293;SDS011;74171;52.534;13.436;2024-02-21T01:35:57;17.47;;;6.00;;
15293;SDS011;74171;52.534;13.436;2024-02-21T01:38:00;17.67;;;5.73;;
15293;SDS011;74171;52.534;13.436;2024-02-21T01:40:03;15.90;;;5.97;;
15293;SDS011;74171;52.534;13.436;2024-02-21T01:42:07;16.23;;;5.33;;
15293;SDS011;74171;52.534;13.436;2024-02-21T01:44:11;14.20;;;6.33;;
15293;SDS011;74171;52.534;13.436;2024-02-21T01:46:14;14.27;;;5.17;;
15293;SDS011;74171;52.534;13.436;2024-02-21T01:48:17;18.07;;;5.50;;
15293;SDS011;74171;52.534;13.436;2024-02-21T01:50:20;19.07;;;5.10;;
15293;SDS011;74171;52.534;13.436;2024-02-21T01:52:26;18.37;;;6.07;;
15293;SDS011;74171;52.534;13.436;2024-02-21T01:54:29;15.07;;;5.03;;
15293;SDS011;74171;52.534;13.436;2024-02-21T01:56:33;19.63;;;5.87;;
15293;SDS011;74171;52.534;13.436;2024-02-21T01:58:37;11.53;;;4.70;;
15293;SDS011;74171;52.534;13.436;2024-02-21T02:00:42;16.43;;;5.17;;
15293;SDS011;74171;52.534;13.436;2024-02-21T02:02:44;13.13;;;5.33;;
15293;SDS011;74171;52.534;13.436;2024-02-21T02:04:48;14.73;;;5.13;;
15293;SDS011;74171;52.534;13.436;2024-02-21T02:06:52;9.47;;;4.93;;
15293;SDS011;74171;52.534;13.436;2024-02-21T02:08:57;17.23;;;5.60;;
15293;SDS011;74171;52.534;13.436;2024-02-21T02:11:00;13.37;;;4.70;;
15293;SDS011;74171;52.534;13.436;2024-02-21T02:13:03;13.77;;;4.97;;
15293;SDS011;74171;52.534;13.436;2024-02-21T02:15:07;16.53;;;5.87;;
15293;SDS011;74171;52.534;13.436;2024-02-21T02:17:10;14.50;;;5.60;;
15293;SDS011;74171;52.534;13.436;2024-02-21T02:19:15;15.53;;;5.17;;
15293;SDS011;74171;52.534;13.436;2024-02-21T02:21:23;14.37;;;4.80;;
15293;SDS011;74171;52.534;13.436;2024-02-21T02:23:32;13.77;;;5.23;;
15293;SDS011;74171;52.534;13.436;2024-02-21T02:25:35;15.67;;;5.10;;
15293;SDS011;74171;52.534;13.436;2024-02-21T02:27:42;16.37;;;5.13;;
15293;SDS011;74171;52.534;13.436;2024-02-21T02:29:46;20.10;;;5.27;;
15293;SDS011;74171;52.534;13.436;2024-02-21T02:31:49;18.87;;;5.57;;
15293;SDS011;74171;52.534;13.436;2024-02-21T02:33:52;14.93;;;5.63;;
15293;SDS011;74171;52.534;13.436;2024-02-21T02:35:55;15.63;;;5.93;;
15293;SDS011;74171;52.534;13.436;2024-02-21T02:38:00;19.93;;;4.80;;
15293;SDS011;74171;52.534;13.436;2024-02-21T02:40:06;13.03;;;5.17;;
15293;SDS011;74171;52.534;13.436;2024-02-21T02:42:10;15.60;;;5.27;;
15293;SDS011;74171;52.534;13.436;2024-02-21T02:44:14;14.60;;;5.77;;
15293;SDS011;74171;52.534;13.436;2024-02-21T02:46:17;17.37;;;5.30;;
15293;SDS011;74171;52.534;13.436;2024-02-21T02:48:20;13.50;;;6.00;;
15293;SDS011;74171;52.534;13.436;2024-02-21T02:50:23;14.60;;;5.10;;
15293;SDS011;74171;52.534;13.436;2024-02-21T02:52:27;13.27;;;4.97;;
15293;SDS011;74171;52.534;13.436;2024-02-21T02:54:31;17.67;;;5.57;;
15293;SDS011;74171;52.534;13.436;2024-02-21T02:56:35;15.40;;;5.60;;
15293;SDS011;74171;52.534;13.436;2024-02-21T02:58:38;17.70;;;6.10;;
15293;SDS011;74171;52.534;13.436;2024-02-21T03:00:41;15.70;;;5.80;;
15293;SDS011;74171;52.534;13.436;2024-02-21T03:02:43;16.23;;;5.67;;
15293;SDS011;74171;52.534;13.436;2024-02-21T03:04:47;13.53;;;5.50;;
15293;SDS011;74171;52.534;13.436;2024-02-21T03:06:51;12.90;;;6.43;;
15293;SDS011;74171;52.534;13.436;2024-02-21T03:08:54;14.87;;;5.90;;
15293;SDS011;74171;52.534;13.436;2024-02-21T03:10:57;22.20;;;6.10;;
15293;SDS011;74171;52.534;13.436;2024-02-21T03:13:05;12.33;;;5.53;;
15293;SDS011;74171;52.534;13.436;2024-02-21T03:15:09;20.07;;;6.40;;
15293;SDS011;74171;52.534;13.436;2024-02-21T03:17:12;20.13;;;6.70;;
15293;SDS011;74171;52.534;13.436;2024-02-21T03:19:15;21.37;;;6.17;;
15293;SDS011;74171;52.534;13.436;2024-02-21T03:21:18;16.70;;;7.40;;
15293;SDS011;74171;52.534;13.436;2024-02-21T03:23:21;16.47;;;6.27;;
15293;SDS011;74171;52.534;13.436;2024-02-21T03:25:25;17.43;;;7.00;;
15293;SDS011;74171;52.534;13.436;2024-02-21T03:27:28;17.30;;;6.67;;
15293;SDS011;74171;52.534;13.436;2024-02-21T03:29:32;15.63;;;6.00;;
15293;SDS011;74171;52.534;13.436;2024-02-21T03:31:35;16.93;;;6.47;;
15293;SDS011;74171;52.534;13.436;2024-02-21T03:33:41;18.30;;;6.77;;
15293;SDS011;74171;52.534;13.436;2024-02-21T03:35:45;18.17;;;6.67;;
15293;SDS011;74171;52.534;13.436;2024-02-21T03:37:49;17.10;;;6.20;;
15293;SDS011;74171;52.534;13.436;2024-02-21T03:39:52;24.20;;;8.07;;
15293;SDS011;74171;52.534;13.436;2024-02-21T03:41:55;12.63;;;6.10;;
15293;SDS011;74171;52.534;13.436;2024-02-21T03:43:59;23.67;;;7.47;;
15293;SDS011;74171;52.534;13.436;2024-02-21T03:46:04;25.87;;;8.60;;
15293;SDS011;74171;52.534;13.436;2024-02-21T03:48:07;17.13;;;7.03;;
15293;SDS011;74171;52.534;13.436;2024-02-21T03:50:10;17.53;;;6.87;;
15293;SDS011;74171;52.534;13.436;2024-02-21T03:52:13;22.57;;;7.20;;
15293;SDS011;74171;52.534;13.436;2024-02-21T03:54:15;16.07;;;6.77;;
15293;SDS011;74171;52.534;13.436;2024-02-21T03:56:18;17.20;;;7.20;;
15293;SDS011;74171;52.534;13.436;2024-02-21T03:58:21;15.80;;;7.20;;
15293;SDS011;74171;52.534;13.436;2024-02-21T04:00:24;15.37;;;7.03;;
15293;SDS011;74171;52.534;13.436;2024-02-21T04:02:28;17.97;;;6.93;;
15293;SDS011;74171;52.534;13.436;2024-02-21T04:04:32;16.43;;;7.27;;
15293;SDS011;74171;52.534;13.436;2024-02-21T04:06:35;17.50;;;7.37;;
15293;SDS011;74171;52.534;13.436;2024-02-21T04:08:38;23.17;;;7.47;;
15293;SDS011;74171;52.534;13.436;2024-02-21T04:10:42;14.13;;;7.97;;
15293;SDS011;74171;52.534;13.436;2024-02-21T04:12:44;21.37;;;7.90;;
15293;SDS011;74171;52.534;13.436;2024-02-21T04:14:47;20.20;;;7.77;;
15293;SDS011;74171;52.534;13.436;2024-02-21T04:16:49;14.80;;;7.07;;
15293;SDS011;74171;52.534;13.436;2024-02-21T04:18:53;18.30;;;7.00;;
15293;SDS011;74171;52.534;13.436;2024-02-21T04:20:55;17.20;;;7.80;;
15293;SDS011;74171;52.534;13.436;2024-02-21T04:22:58;17.43;;;7.40;;
15293;SDS011;74171;52.534;13.436;2024-02-21T04:25:01;19.03;;;7.77;;
15293;SDS011;74171;52.534;13.436;2024-02-21T04:27:05;16.73;;;6.90;;
15293;SDS011;74171;52.534;13.436;2024-02-21T04:29:08;23.03;;;7.33;;
15293;SDS011;74171;52.534;13.436;2024-02-21T04:31:11;19.13;;;8.07;;
15293;SDS011;74171;52.534;13.436;2024-02-21T04:33:14;16.43;;;7.77;;
15293;SDS011;74171;52.534;13.436;2024-02-21T04:35:18;19.63;;;7.77;;
15293;SDS011;74171;52.534;13.436;2024-02-21T04:37:21;16.30;;;7.63;;
15293;SDS011;74171;52.534;13.436;2024-02-21T04:39:25;14.47;;;7.37;;
15293;SDS011;74171;52.534;13.436;2024-02-21T04:41:28;20.90;;;7.47;;
15293;SDS011;74171;52.534;13.436;2024-02-21T04:43:31;16.07;;;7.13;;
15293;SDS011;74171;52.534;13.436;2024-02-21T04:45:34;24.43;;;8.00;;
15293;SDS011;74171;52.534;13.436;2024-02-21T04:47:36;18.77;;;7.17;;
15293;SDS011;74171;52.534;13.436;2024-02-21T04:49:39;19.23;;;7.33;;
15293;SDS011;74171;52.534;13.436;2024-02-21T04:51:43;20.73;;;7.53;;
15293;SDS011;74171;52.534;13.436;2024-02-21T04:53:46;20.70;;;7.63;;
15293;SDS011;74171;52.534;13.436;2024-02-21T04:55:49;16.53;;;7.13;;
15293;SDS011;74171;52.534;13.436;2024-02-21T04:57:52;21.10;;;7.23;;
15293;SDS011;74171;52.534;13.436;2024-02-21T04:59:56;20.07;;;7.23;;
15293;SDS011;74171;52.534;13.436;2024-02-21T05:01:58;22.87;;;7.63;;
15293;SDS011;74171;52.534;13.436;2024-02-21T05:04:01;17.90;;;7.70;;
15293;SDS011;74171;52.534;13.436;2024-02-21T05:06:04;20.67;;;7.30;;
15293;SDS011;74171;52.534;13.436;2024-02-21T05:08:09;28.43;;;7.90;;
15293;SDS011;74171;52.534;13.436;2024-02-21T05:10:12;16.07;;;7.47;;
15293;SDS011;74171;52.534;13.436;2024-02-21T05:12:15;18.03;;;7.33;;
15293;SDS011;74171;52.534;13.436;2024-02-21T05:14:18;15.27;;;7.33;;
15293;SDS011;74171;52.534;13.436;2024-02-21T05:16:21;22.57;;;6.90;;
15293;SDS011;74171;52.534;13.436;2024-02-21T05:18:24;19.90;;;7.20;;
15293;SDS011;74171;52.534;13.436;2024-02-21T05:20:27;15.90;;;7.60;;
15293;SDS011;74171;52.534;13.436;2024-02-21T05:22:29;15.83;;;8.57;;
15293;SDS011;74171;52.534;13.436;2024-02-21T05:24:35;13.07;;;6.53;;
15293;SDS011;74171;52.534;13.436;2024-02-21T05:26:38;22.33;;;7.77;;
15293;SDS011;74171;52.534;13.436;2024-02-21T05:28:42;21.60;;;8.97;;
15293;SDS011;74171;52.534;13.436;2024-02-21T05:30:46;18.67;;;8.43;;
15293;SDS011;74171;52.534;13.436;2024-02-21T05:32:49;17.43;;;8.30;;
15293;SDS011;74171;52.534;13.436;2024-02-21T05:34:51;16.47;;;7.97;;
15293;SDS011;74171;52.534;13.436;2024-02-21T05:36:54;17.10;;;7.73;;
15293;SDS011;74171;52.534;13.436;2024-02-21T05:38:59;15.27;;;7.67;;
15293;SDS011;74171;52.534;13.436;2024-02-21T05:41:03;17.90;;;7.63;;
15293;SDS011;74171;52.534;13.436;2024-02-21T05:43:12;22.77;;;8.50;;
15293;SDS011;74171;52.534;13.436;2024-02-21T05:45:15;17.17;;;7.37;;
15293;SDS011;74171;52.534;13.436;2024-02-21T05:47:18;20.87;;;8.40;;
15293;SDS011;74171;52.534;13.436;2024-02-21T05:49:22;23.20;;;8.00;;
15293;SDS011;74171;52.534;13.436;2024-02-21T05:51:26;19.13;;;8.40;;
15293;SDS011;74171;52.534;13.436;2024-02-21T05:53:32;18.37;;;7.73;;
15293;SDS011;74171;52.534;13.436;2024-02-21T05:55:36;23.57;;;9.43;;
15293;SDS011;74171;52.534;13.436;2024-02-21T05:57:40;17.33;;;8.13;;
15293;SDS011;74171;52.534;13.436;2024-02-21T05:59:43;21.23;;;8.23;;
15293;SDS011;74171;52.534;13.436;2024-02-21T06:01:54;17.70;;;8.53;;
15293;SDS011;74171;52.534;13.436;2024-02-21T06:03:59;21.70;;;8.77;;
15293;SDS011;74171;52.534;13.436;2024-02-21T06:06:02;18.50;;;8.30;;
15293;SDS011;74171;52.534;13.436;2024-02-21T06:08:06;18.27;;;7.80;;
15293;SDS011;74171;52.534;13.436;2024-02-21T06:10:10;20.00;;;9.03;;
15293;SDS011;74171;52.534;13.436;2024-02-21T06:12:14;18.60;;;8.20;;
15293;SDS011;74171;52.534;13.436;2024-02-21T06:14:18;17.63;;;8.40;;
15293;SDS011;74171;52.534;13.436;2024-02-21T06:16:21;23.53;;;8.37;;
15293;SDS011;74171;52.534;13.436;2024-02-21T06:18:25;21.20;;;8.77;;
15293;SDS011;74171;52.534;13.436;2024-02-21T06:20:28;16.13;;;8.37;;
15293;SDS011;74171;52.534;13.436;2024-02-21T06:22:32;19.77;;;8.43;;
15293;SDS011;74171;52.534;13.436;2024-02-21T06:24:34;21.13;;;7.90;;
15293;SDS011;74171;52.534;13.436;2024-02-21T06:26:37;21.27;;;8.37;;
15293;SDS011;74171;52.534;13.436;2024-02-21T06:28:41;22.83;;;8.37;;
15293;SDS011;74171;52.534;13.436;2024-02-21T06:30:46;16.77;;;8.60;;
15293;SDS011;74171;52.534;13.436;2024-02-21T06:32:51;22.03;;;8.47;;
15293;SDS011;74171;52.534;13.436;2024-02-21T06:34:57;18.00;;;8.93;;
15293;SDS011;74171;52.534;13.436;2024-02-21T06:37:08;14.23;;;7.63;;
15293;SDS011;74171;52.534;13.436;2024-02-21T06:39:13;20.33;;;8.57;;
15293;SDS011;74171;52.534;13.436;2024-02-21T06:41:18;20.80;;;8.63;;
15293;SDS011;74171;52.534;13.436;2024-02-21T06:46:06;17.17;;;8.93;;
15293;SDS011;74171;52.534;13.436;2024-02-21T06:48:09;21.77;;;8.60;;
15293;SDS011;74171;52.534;13.436;2024-02-21T06:50:13;18.57;;;9.40;;
15293;SDS011;74171;52.534;13.436;2024-02-21T06:52:17;18.67;;;9.20;;
15293;SDS011;74171;52.534;13.436;2024-02-21T06:54:24;18.10;;;8.20;;
15293;SDS011;74171;52.534;13.436;2024-02-21T06:56:37;15.33;;;7.83;;
15293;SDS011;74171;52.534;13.436;2024-02-21T06:58:39;15.30;;;8.37;;
15293;SDS011;74171;52.534;13.436;2024-02-21T07:00:42;20.70;;;8.67;;
15293;SDS011;74171;52.534;13.436;2024-02-21T07:02:47;15.33;;;7.73;;
15293;SDS011;74171;52.534;13.436;2024-02-21T07:04:52;18.37;;;8.20;;
15293;SDS011;74171;52.534;13.436;2024-02-21T07:06:56;13.30;;;8.10;;
15293;SDS011;74171;52.534;13.436;2024-02-21T07:08:59;20.50;;;8.70;;
15293;SDS011;74171;52.534;13.436;2024-02-21T07:11:03;20.13;;;8.57;;
15293;SDS011;74171;52.534;13.436;2024-02-21T07:13:07;17.73;;;8.70;;
15293;SDS011;74171;52.534;13.436;2024-02-21T07:15:09;24.73;;;9.47;;
15293;SDS011;74171;52.534;13.436;2024-02-21T07:17:13;16.17;;;7.93;;
15293;SDS011;74171;52.534;13.436;2024-02-21T07:19:17;21.20;;;9.30;;
15293;SDS011;74171;52.534;13.436;2024-02-21T07:21:21;17.30;;;8.93;;
15293;SDS011;74171;52.534;13.436;2024-02-21T07:23:26;17.50;;;9.07;;
15293;SDS011;74171;52.534;13.436;2024-02-21T07:25:29;21.03;;;8.30;;
15293;SDS011;74171;52.534;13.436;2024-02-21T07:27:32;18.80;;;9.07;;
15293;SDS011;74171;52.534;13.436;2024-02-21T07:29:35;21.23;;;10.03;;
15293;SDS011;74171;52.534;13.436;2024-02-21T07:31:49;13.87;;;8.67;;
15293;SDS011;74171;52.534;13.436;2024-02-21T07:33:55;20.10;;;9.53;;
15293;SDS011;74171;52.534;13.436;2024-02-21T07:35:58;17.77;;;8.73;;
15293;SDS011;74171;52.534;13.436;2024-02-21T07:38:02;16.27;;;8.83;;
15293;SDS011;74171;52.534;13.436;2024-02-21T07:40:11;16.90;;;8.60;;
15293;SDS011;74171;52.534;13.436;2024-02-21T07:42:15;15.77;;;8.67;;
15293;SDS011;74171;52.534;13.436;2024-02-21T07:44:17;13.40;;;7.77;;
15293;SDS011;74171;52.534;13.436;2024-02-21T07:46:22;19.63;;;9.23;;
15293;SDS011;74171;52.534;13.436;2024-02-21T07:48:27;21.20;;;9.97;;
15293;SDS011;74171;52.534;13.436;2024-02-21T07:50:33;20.97;;;8.27;;
15293;SDS011;74171;52.534;13.436;2024-02-21T07:52:38;21.83;;;8.80;;
15293;SDS011;74171;52.534;13.436;2024-02-21T07:54:42;23.47;;;9.00;;
15293;SDS011;74171;52.534;13.436;2024-02-21T07:56:45;16.57;;;8.23;;
15293;SDS011;74171;52.534;13.436;2024-02-21T07:58:48;16.20;;;9.30;;
15293;SDS011;74171;52.534;13.436;2024-02-21T08:00:52;18.47;;;9.13;;
15293;SDS011;74171;52.534;13.436;2024-02-21T08:02:54;15.87;;;8.37;;
15293;SDS011;74171;52.534;13.436;2024-02-21T08:05:02;20.43;;;8.33;;
15293;SDS011;74171;52.534;13.436;2024-02-21T08:07:06;14.30;;;8.23;;
15293;SDS011;74171;52.534;13.436;2024-02-21T08:09:11;13.90;;;7.53;;
15293;SDS011;74171;52.534;13.436;2024-02-21T08:11:14;19.17;;;8.57;;
15293;SDS011;74171;52.534;13.436;2024-02-21T08:13:17;20.23;;;8.07;;
15293;SDS011;74171;52.534;13.436;2024-02-21T08:15:22;16.93;;;7.20;;
15293;SDS011;74171;52.534;13.436;2024-02-21T08:17:31;15.77;;;8.27;;
15293;SDS011;74171;52.534;13.436;2024-02-21T08:19:35;17.57;;;7.93;;
15293;SDS011;74171;52.534;13.436;2024-02-21T08:21:39;14.53;;;7.50;;
15293;SDS011;74171;52.534;13.436;2024-02-21T08:23:42;20.00;;;8.53;;
15293;SDS011;74171;52.534;13.436;2024-02-21T08:25:46;13.77;;;7.80;;
15293;SDS011;74171;52.534;13.436;2024-02-21T08:27:50;12.10;;;7.60;;
15293;SDS011;74171;52.534;13.436;2024-02-21T08:29:54;17.57;;;7.73;;
15293;SDS011;74171;52.534;13.436;2024-02-21T08:31:57;13.07;;;7.30;;
15293;SDS011;74171;52.534;13.436;2024-02-21T08:34:00;14.83;;;7.60;;
15293;SDS011;74171;52.534;13.436;2024-02-21T08:36:05;17.57;;;7.60;;
15293;SDS011;74171;52.534;13.436;2024-02-21T08:38:09;16.80;;;7.53;;
15293;SDS011;74171;52.534;13.436;2024-02-21T08:40:12;14.77;;;7.30;;
15293;SDS011;74171;52.534;13.436;2024-02-21T08:42:16;16.07;;;8.13;;
15293;SDS011;74171;52.534;13.436;2024-02-21T08:44:19;16.73;;;8.47;;
15293;SDS011;74171;52.534;13.436;2024-02-21T08:46:25;18.80;;;8.70;;
15293;SDS011;74171;52.534;13.436;2024-02-21T08:48:29;19.77;;;7.97;;
15293;SDS011;74171;52.534;13.436;2024-02-21T08:50:31;22.20;;;8.23;;
15293;SDS011;74171;52.534;13.436;2024-02-21T08:52:34;26.83;;;9.87;;
15293;SDS011;74171;52.534;13.436;2024-02-21T08:54:37;16.57;;;8.77;;
15293;SDS011;74171;52.534;13.436;2024-02-21T08:56:41;18.27;;;8.57;;
15293;SDS011;74171;52.534;13.436;2024-02-21T08:58:44;14.40;;;9.30;;
15293;SDS011;74171;52.534;13.436;2024-02-21T09:00:47;15.67;;;8.10;;
15293;SDS011;74171;52.534;13.436;2024-02-21T09:02:49;15.83;;;8.57;;
15293;SDS011;74171;52.534;13.436;2024-02-21T09:04:52;16.13;;;9.23;;
15293;SDS011;74171;52.534;13.436;2024-02-21T09:06:55;16.33;;;8.43;;
15293;SDS011;74171;52.534;13.436;2024-02-21T09:08:58;15.77;;;8.43;;
15293;SDS011;74171;52.534;13.436;2024-02-21T09:11:01;13.87;;;7.87;;
15293;SDS011;74171;52.534;13.436;2024-02-21T09:13:03;15.27;;;8.90;;
15293;SDS011;74171;52.534;13.436;2024-02-21T09:15:09;16.33;;;8.53;;
15293;SDS011;74171;52.534;13.436;2024-02-21T09:17:12;17.40;;;8.20;;
15293;SDS011;74171;52.534;13.436;2024-02-21T09:19:16;16.67;;;8.60;;
15293;SDS011;74171;52.534;13.436;2024-02-21T09:21:19;15.57;;;8.57;;
15293;SDS011;74171;52.534;13.436;2024-02-21T09:23:23;14.37;;;8.80;;
15293;SDS011;74171;52.534;13.436;2024-02-21T09:25:26;19.13;;;9.00;;
15293;SDS011;74171;52.534;13.436;2024-02-21T09:27:30;17.17;;;9.23;;
15293;SDS011;74171;52.534;13.436;2024-02-21T09:29:33;20.83;;;9.40;;
15293;SDS011;74171;52.534;13.436;2024-02-21T09:31:37;24.33;;;9.70;;
15293;SDS011;74171;52.534;13.436;2024-02-21T09:33:41;15.70;;;9.37;;
15293;SDS011;74171;52.534;13.436;2024-02-21T09:35:44;13.67;;;7.97;;
15293;SDS011;74171;52.534;13.436;2024-02-21T09:37:47;15.70;;;8.87;;
15293;SDS011;74171;52.534;13.436;2024-02-21T09:39:51;17.43;;;8.63;;
15293;SDS011;74171;52.534;13.436;2024-02-21T09:41:56;22.00;;;10.17;;
15293;SDS011;74171;52.534;13.436;2024-02-21T09:44:02;11.87;;;8.50;;
15293;SDS011;74171;52.534;13.436;2024-02-21T09:46:07;17.33;;;8.50;;
15293;SDS011;74171;52.534;13.436;2024-02-21T09:48:19;15.43;;;7.87;;
15293;SDS011;74171;52.534;13.436;2024-02-21T09:50:31;20.60;;;9.03;;
15293;SDS011;74171;52.534;13.436;2024-02-21T09:52:36;19.40;;;9.53;;
15293;SDS011;74171;52.534;13.436;2024-02-21T09:54:40;17.67;;;8.80;;
15293;SDS011;74171;52.534;13.436;2024-02-21T09:56:44;20.67;;;8.70;;
15293;SDS011;74171;52.534;13.436;2024-02-21T09:58:48;16.07;;;8.50;;
15293;SDS011;74171;52.534;13.436;2024-02-21T10:00:52;13.90;;;8.37;;
15293;SDS011;74171;52.534;13.436;2024-02-21T10:02:59;13.10;;;7.40;;
15293;SDS011;74171;52.534;13.436;2024-02-21T10:05:04;18.87;;;8.60;;
15293;SDS011;74171;52.534;13.436;2024-02-21T10:07:09;18.30;;;8.93;;
15293;SDS011;74171;52.534;13.436;2024-02-21T10:09:19;22.93;;;10.37;;
15293;SDS011;74171;52.534;13.436;2024-02-21T10:11:24;19.33;;;8.83;;
15293;SDS011;74171;52.534;13.436;2024-02-21T10:13:29;14.93;;;8.50;;
15293;SDS011;74171;52.534;13.436;2024-02-21T10:15:32;18.97;;;10.00;;
15293;SDS011;74171;52.534;13.436;2024-02-21T10:17:37;13.67;;;8.97;;
15293;SDS011;74171;52.534;13.436;2024-02-21T10:19:41;15.67;;;8.73;;
15293;SDS011;74171;52.534;13.436;2024-02-21T10:21:58;14.63;;;8.17;;
15293;SDS011;74171;52.534;13.436;2024-02-21T10:24:03;18.70;;;9.47;;
15293;SDS011;74171;52.534;13.436;2024-02-21T10:26:07;19.97;;;8.83;;
15293;SDS011;74171;52.534;13.436;2024-02-21T10:28:11;18.23;;;8.27;;
15293;SDS011;74171;52.534;13.436;2024-02-21T10:30:16;16.43;;;8.63;;
15293;SDS011;74171;52.534;13.436;2024-02-21T10:32:19;14.27;;;7.90;;
15293;SDS011;74171;52.534;13.436;2024-02-21T10:34:24;15.10;;;8.83;;
15293;SDS011;74171;52.534;13.436;2024-02-21T10:36:27;17.50;;;9.13;;
15293;SDS011;74171;52.534;13.436;2024-02-21T10:38:31;17.43;;;9.10;;
15293;SDS011;74171;52.534;13.436;2024-02-21T10:40:35;22.13;;;8.53;;
15293;SDS011;74171;52.534;13.436;2024-02-21T10:42:38;16.63;;;7.87;;
15293;SDS011;74171;52.534;13.436;2024-02-21T10:44:42;14.97;;;8.10;;
15293;SDS011;74171;52.534;13.436;2024-02-21T10:46:46;14.87;;;7.90;;
15293;SDS011;74171;52.534;13.436;2024-02-21T10:48:52;14.60;;;8.07;;
15293;SDS011;74171;52.534;13.436;2024-02-21T10:51:02;14.47;;;8.63;;
15293;SDS011;74171;52.534;13.436;2024-02-21T10:53:13;16.13;;;8.40;;
15293;SDS011;74171;52.534;13.436;2024-02-21T10:55:30;11.37;;;8.43;;
15293;SDS011;74171;52.534;13.436;2024-02-21T10:57:37;14.93;;;8.13;;
15293;SDS011;74171;52.534;13.436;2024-02-21T10:59:41;16.77;;;7.90;;
15293;SDS011;74171;52.534;13.436;2024-02-21T11:01:46;12.93;;;7.70;;
15293;SDS011;74171;52.534;13.436;2024-02-21T11:04:00;14.00;;;8.00;;
15293;SDS011;74171;52.534;13.436;2024-02-21T11:06:05;10.17;;;7.77;;
15293;SDS011;74171;52.534;13.436;2024-02-21T11:08:13;10.23;;;7.30;;
15293;SDS011;74171;52.534;13.436;2024-02-21T11:10:22;13.77;;;8.40;;
15293;SDS011;74171;52.534;13.436;2024-02-21T11:12:28;15.80;;;8.07;;
15293;SDS011;74171;52.534;13.436;2024-02-21T11:14:37;15.07;;;7.67;;
15293;SDS011;74171;52.534;13.436;2024-02-21T11:16:43;14.90;;;7.17;;
15293;SDS011;74171;52.534;13.436;2024-02-21T11:18:46;13.10;;;7.83;;
15293;SDS011;74171;52.534;13.436;2024-02-21T11:20:49;10.87;;;7.43;;
15293;SDS011;74171;52.534;13.436;2024-02-21T11:22:52;13.40;;;7.27;;
15293;SDS011;74171;52.534;13.436;2024-02-21T11:25:05;12.93;;;7.33;;
15293;SDS011;74171;52.534;13.436;2024-02-21T11:27:09;14.77;;;7.40;;
15293;SDS011;74171;52.534;13.436;2024-02-21T11:29:16;13.13;;;6.80;;
15293;SDS011;74171;52.534;13.436;2024-02-21T11:31:25;12.03;;;7.37;;
15293;SDS011;74171;52.534;13.436;2024-02-21T11:33:29;12.13;;;7.30;;
15293;SDS011;74171;52.534;13.436;2024-02-21T11:35:33;8.80;;;6.27;;
15293;SDS011;74171;52.534;13.436;2024-02-21T11:37:37;11.93;;;7.37;;
15293;SDS011;74171;52.534;13.436;2024-02-21T11:39:41;13.03;;;7.27;;
15293;SDS011;74171;52.534;13.436;2024-02-21T11:41:59;15.87;;;8.43;;
15293;SDS011;74171;52.534;13.436;2024-02-21T11:44:03;14.80;;;6.70;;
15293;SDS011;74171;52.534;13.436;2024-02-21T11:46:08;8.60;;;6.00;;
15293;SDS011;74171;52.534;13.436;2024-02-21T11:48:11;13.63;;;6.57;;
15293;SDS011;74171;52.534;13.436;2024-02-21T11:50:14;7.63;;;5.20;;
15293;SDS011;74171;52.534;13.436;2024-02-21T11:52:21;10.10;;;6.13;;
15293;SDS011;74171;52.534;13.436;2024-02-21T11:54:28;8.50;;;5.50;;
15293;SDS011;74171;52.534;13.436;2024-02-21T11:56:31;12.03;;;6.33;;
15293;SDS011;74171;52.534;13.436;2024-02-21T11:58:35;8.73;;;4.90;;
15293;SDS011;74171;52.534;13.436;2024-02-21T12:00:39;6.70;;;5.27;;
15293;SDS011;74171;52.534;13.436;2024-02-21T12:02:45;9.87;;;5.50;;
15293;SDS011;74171;52.534;13.436;2024-02-21T12:04:48;9.63;;;5.67;;
15293;SDS011;74171;52.534;13.436;2024-02-21T12:06:52;8.20;;;5.17;;
15293;SDS011;74171;52.534;13.436;2024-02-21T12:08:57;9.53;;;5.17;;